Kihou Maru — JD3372 — position and weather

sailwx.info

Track history (hours):
 
Tides and Currents Weather Stations Pressure Air Temp Water Temp Dewpoint Dewpoint Depression Visibility Wind Speed Wind Dir Waves Ship Positions

Kihou Maru

Last reported at 2018-Jun-23 15:46 UTC. Time now 2018-Jun-25 05:45 UTC.
Position N 34°36' E 135°04'.

Length 58 m.

Type: Cargo ship. MMSI: 431003527.

Date/timePositionNaut miles runAvg speedWind from/ knotsBaromVisibWave heightAir tempDewpointWater temp
2018-Jun-23 15:46N 34°36' E 135°04'310.9
2018-Jun-23 15:30N 34°36' E 135°07'711.9
2018-Jun-23 14:57N 34°37' E 135°15'511.5
2018-Jun-23 14:29N 34°36' E 135°22'5 0.6
2018-Jun-23 05:49N 34°34' E 135°27'3 8.9
2018-Jun-23 05:26N 34°36' E 135°24'510.3
2018-Jun-23 04:57N 34°36' E 135°18'510.4
2018-Jun-23 04:28N 34°36' E 135°11'511.3
2018-Jun-23 03:59N 34°35' E 135°05'2611.4
2018-Jun-23 01:40N 34°28' E 134°34'3 0.1
2018-Jun-21 20:43N 34°28' E 134°31'311.7
2018-Jun-21 20:29N 34°29' E 134°34'911.8
2018-Jun-21 19:45N 34°33' E 134°43'1712.7
2018-Jun-21 18:23N 34°36' E 135°04'511.8
2018-Jun-21 17:59N 34°36' E 135°09'611.9
2018-Jun-21 17:29N 34°37' E 135°17'611.7
2018-Jun-21 16:58N 34°36' E 135°24'1 0.1
2018-Jun-21 05:38N 34°36' E 135°25'210.5
2018-Jun-21 05:26N 34°36' E 135°23'510.8
2018-Jun-21 05:00N 34°36' E 135°17'510.8
2018-Jun-21 04:30N 34°35' E 135°11'3 0.1
2018-Jun-19 01:00N 34°36' E 135°07'611.0
2018-Jun-19 00:28N 34°36' E 135°14'510.8
2018-Jun-18 23:59N 34°36' E 135°21'3 0.1
2018-Jun-17 21:59N 34°36' E 135°24'5 9.7
2018-Jun-17 21:30N 34°36' E 135°18'510.2
2018-Jun-17 21:00N 34°35' E 135°12'611.3
2018-Jun-17 20:29N 34°35' E 135°05'1711.4
2018-Jun-17 18:59N 34°32' E 134°45'910.8
2018-Jun-17 18:10N 34°28' E 134°35'  
2018-Jun-15 00:14N 34°31' E 134°40'312.0
2018-Jun-15 00:00N 34°32' E 134°43'1213.1
2018-Jun-14 23:07N 34°37' E 134°56'612.4
2018-Jun-14 22:38N 34°36' E 135°03'210.8
2018-Jun-14 22:28N 34°36' E 135°06'511.0
2018-Jun-14 22:00N 34°36' E 135°12'611.4
2018-Jun-14 21:30N 34°36' E 135°19'610.8
2018-Jun-14 20:59N 34°36' E 135°26'0 0.0
2018-Jun-13 16:32N 34°36' E 135°25'110.8
2018-Jun-13 16:26N 34°36' E 135°24'410.2
2018-Jun-13 16:00N 34°36' E 135°19'  
Track history (hours):
 
Tides and Currents Weather Stations Pressure Air Temp Water Temp Dewpoint Dewpoint Depression Visibility Wind Speed Wind Dir Waves Ship Positions

Kihou Maru

Last reported at 2018-Jun-23 15:46 UTC. Time now 2018-Jun-25 05:45 UTC.
Position N 34°36' E 135°04'.

Length 58 m.

Type: Cargo ship. MMSI: 431003527.

Date/timePositionNaut miles runAvg speedWind from/ knotsBaromVisibWave heightAir tempDewpointWater temp
2018-Jun-23 15:46N 34°36' E 135°04'310.9
2018-Jun-23 15:30N 34°36' E 135°07'711.9
2018-Jun-23 14:57N 34°37' E 135°15'511.5
2018-Jun-23 14:29N 34°36' E 135°22'5 0.6
2018-Jun-23 05:49N 34°34' E 135°27'3 8.9
2018-Jun-23 05:26N 34°36' E 135°24'510.3
2018-Jun-23 04:57N 34°36' E 135°18'510.4
2018-Jun-23 04:28N 34°36' E 135°11'511.3
2018-Jun-23 03:59N 34°35' E 135°05'2611.4
2018-Jun-23 01:40N 34°28' E 134°34'3 0.1
2018-Jun-21 20:43N 34°28' E 134°31'311.7
2018-Jun-21 20:29N 34°29' E 134°34'911.8
2018-Jun-21 19:45N 34°33' E 134°43'1712.7
2018-Jun-21 18:23N 34°36' E 135°04'511.8
2018-Jun-21 17:59N 34°36' E 135°09'611.9
2018-Jun-21 17:29N 34°37' E 135°17'611.7
2018-Jun-21 16:58N 34°36' E 135°24'1 0.1
2018-Jun-21 05:38N 34°36' E 135°25'210.5
2018-Jun-21 05:26N 34°36' E 135°23'510.8
2018-Jun-21 05:00N 34°36' E 135°17'510.8
2018-Jun-21 04:30N 34°35' E 135°11'3 0.1
2018-Jun-19 01:00N 34°36' E 135°07'611.0
2018-Jun-19 00:28N 34°36' E 135°14'510.8
2018-Jun-18 23:59N 34°36' E 135°21'3 0.1
2018-Jun-17 21:59N 34°36' E 135°24'5 9.7
2018-Jun-17 21:30N 34°36' E 135°18'510.2
2018-Jun-17 21:00N 34°35' E 135°12'611.3
2018-Jun-17 20:29N 34°35' E 135°05'1711.4
2018-Jun-17 18:59N 34°32' E 134°45'910.8
2018-Jun-17 18:10N 34°28' E 134°35'  
2018-Jun-15 00:14N 34°31' E 134°40'312.0
2018-Jun-15 00:00N 34°32' E 134°43'1213.1
2018-Jun-14 23:07N 34°37' E 134°56'612.4
2018-Jun-14 22:38N 34°36' E 135°03'210.8
2018-Jun-14 22:28N 34°36' E 135°06'511.0
2018-Jun-14 22:00N 34°36' E 135°12'611.4
2018-Jun-14 21:30N 34°36' E 135°19'610.8
2018-Jun-14 20:59N 34°36' E 135°26'0 0.0
2018-Jun-13 16:32N 34°36' E 135°25'110.8
2018-Jun-13 16:26N 34°36' E 135°24'410.2
2018-Jun-13 16:00N 34°36' E 135°19'  

Dump ship's entire track history